Roanoke Regional Woodrum Field
KROA : rendu visible

Aérodrome :











RETROUVEZ-NOUS SUR...

 
LOGIN :

S'inscrire | Disclaimer

   EN    FR    IT 

 









Légende :    VFR   VFR Marginal   IFR   IFR Intensif   IFR Très Intensif
Visi : 
Plafond : 
>= 8 km
>= 3000ft
5 à 8 km
1000 à 3000 ft
1500m à 5 km
500 à 1000 ft
800 à 1500m
200 à 500 ft
< 800m
< 200 ft
Symboles :   Orages  Brouillard  Fortes neiges  Fortes précipitations  Vent > 20 kt







- Altitude de l'aérodrome : 1175 ft
- Code IATA : ROA


KROA - Roanoke Regional Woodrum Field

DERNIER METAR :
  • 190254Z 33004KT 10SM SCT009 OVC230 21/19 A2995 RMK AO2 SLP131 60000 T02110194 58008

METARs EXPIRÉS :
  • 190233Z 33004KT 10SM SCT009 OVC230 21/20 A2996 RMK AO2 T02110200
  • 190154Z 00000KT 10SM BKN004 BKN008 OVC110 22/21 A2997 RMK AO2 RAE27 SLP138 P0000 T02170206
  • 190132Z 15004KT 10SM BKN006 BKN120 22/21 A2998 RMK AO2 RAE27 P0000 T02170206
  • 190118Z 15003KT 10SM -RA SCT006 SCT120 22/21 A2998 RMK AO2 P0000 T02170206
  • 190054Z 29003KT 10SM -RA BKN006 OVC110 22/21 A2999 RMK AO2 SLP142 P0000 T02170206

TAF KROA
Valide du 19 à 03h jusqu'au 20 à 00h UTC


190250Z 1903/1924 33004KT P6SM SCT009 OVC230
TEMPO 1904/1908 4SM BR BKN006
FM190800 VRB02KT 3SM BR OVC005
FM191400 22007KT P6SM BKN050
FM191800 21007KT P6SM -SHRA VCTS BKN045CB
FIR KZDC / Amérique du Nord



MET'MAP, la Météo Aéronautique d'un coup d'oeil ! - Copyright ORBIFLY Décembre 2007 - Disclaimer

ORBIFLY MET'MAP TEAM :

Programmation & Développement : Alexandra Zaïnal
Conception & Développement : Baudouin d'Aumeries
Co-Programmation & Développement : Marc-Olivier Méhu
Soutien technique & logistique : Manuel Goepfert

Contact : metmap@orbifly.com




SOURCES & CREDITS :

   NOAA       Earth
Advisory